createdAt,value
2018-06-21T00:00:19.020Z,77.58
2018-06-21T00:02:47.965Z,77.45
2018-06-21T00:05:16.941Z,77.89
2018-06-21T00:07:45.994Z,77.67
2018-06-21T00:10:15.000Z,77.71
2018-06-21T00:12:43.999Z,77.91
2018-06-21T00:15:13.042Z,78.05
2018-06-21T00:17:58.847Z,78.07
2018-06-21T00:20:44.691Z,78.18
2018-06-21T00:23:19.325Z,78.07
2018-06-21T00:25:48.318Z,78.12
2018-06-21T00:28:17.328Z,78.18
2018-06-21T00:30:46.279Z,77.92
2018-06-21T00:33:15.348Z,77.92
2018-06-21T00:35:44.328Z,78.12
2018-06-21T00:38:13.359Z,78.12
2018-06-21T00:40:42.484Z,77.64
2018-06-21T00:43:11.476Z,77.34
2018-06-21T00:45:40.434Z,77.71
2018-06-21T00:48:09.454Z,77.61
2018-06-21T00:50:38.486Z,78.05
2018-06-21T00:53:07.536Z,78.33
2018-06-21T00:55:47.806Z,77.53
2018-06-21T00:58:16.762Z,77.72
2018-06-21T01:00:45.872Z,77.87
2018-06-21T01:03:15.035Z,77.52
2018-06-21T01:05:44.184Z,77.62
2018-06-21T01:08:13.498Z,77.80
2018-06-21T01:10:42.514Z,77.96
2018-06-21T01:13:11.508Z,78.11
2018-06-21T01:15:40.525Z,77.49
2018-06-21T01:18:09.456Z,77.38
2018-06-21T01:20:38.415Z,77.97
2018-06-21T01:23:07.398Z,77.57
2018-06-21T01:25:36.456Z,77.83
2018-06-21T01:28:05.794Z,78.31
2018-06-21T01:30:34.974Z,78.15
2018-06-21T01:33:03.976Z,78.18
2018-06-21T01:35:32.962Z,78.11
2018-06-21T01:38:01.990Z,77.85
2018-06-21T01:40:30.965Z,77.95
2018-06-21T01:42:59.973Z,78.08
2018-06-21T01:45:29.010Z,78.15
2018-06-21T01:47:58.204Z,77.98
2018-06-21T01:50:27.240Z,77.93
2018-06-21T01:52:56.241Z,78.15
2018-06-21T01:55:25.304Z,78.10
2018-06-21T01:57:54.335Z,78.37
2018-06-21T02:00:23.356Z,78.48
2018-06-21T02:02:52.581Z,78.52
2018-06-21T02:05:21.629Z,77.75
2018-06-21T02:07:50.669Z,77.65
2018-06-21T02:10:19.737Z,77.87
2018-06-21T02:12:48.738Z,78.51
2018-06-21T02:15:17.705Z,78.62
2018-06-21T02:17:46.739Z,78.97
2018-06-21T02:20:15.730Z,79.21
2018-06-21T02:22:44.753Z,79.67
2018-06-21T02:25:19.380Z,79.80
2018-06-21T02:27:48.331Z,79.98
2018-06-21T02:30:17.324Z,79.74
2018-06-21T02:32:46.341Z,80.11
2018-06-21T02:35:15.556Z,80.00
2018-06-21T02:37:44.554Z,80.16
2018-06-21T02:40:13.546Z,80.29
2018-06-21T02:42:42.557Z,80.42
2018-06-21T02:45:11.640Z,80.55
2018-06-21T02:47:40.594Z,80.56
2018-06-21T02:50:09.744Z,80.71
2018-06-21T02:52:38.801Z,80.60
2018-06-21T02:55:07.821Z,80.93
2018-06-21T02:57:36.826Z,80.69
2018-06-21T03:00:05.914Z,80.65
2018-06-21T03:02:34.881Z,80.57
2018-06-21T03:05:03.870Z,80.70
2018-06-21T03:07:32.875Z,80.73
2018-06-21T03:10:01.911Z,80.50
2018-06-21T03:12:30.953Z,80.44
2018-06-21T03:15:00.008Z,80.44
2018-06-21T03:17:28.998Z,80.78
2018-06-21T03:19:57.997Z,80.59
2018-06-21T03:22:27.065Z,80.01
2018-06-21T03:24:56.068Z,80.02
2018-06-21T03:27:25.064Z,80.16
2018-06-21T03:29:53.997Z,80.05
2018-06-21T03:32:22.961Z,79.70
2018-06-21T03:34:51.990Z,79.59
2018-06-21T03:37:20.970Z,79.54
2018-06-21T03:39:50.002Z,79.74
2018-06-21T03:42:18.926Z,79.54
2018-06-21T03:44:47.908Z,79.16
2018-06-21T03:47:16.894Z,78.31
2018-06-21T03:49:45.827Z,77.78
2018-06-21T03:52:14.860Z,77.37
2018-06-21T03:54:44.112Z,77.47
2018-06-21T03:57:13.152Z,77.09
2018-06-21T03:59:42.149Z,77.04
2018-06-21T04:02:11.205Z,76.49
2018-06-21T04:04:40.174Z,76.29
2018-06-21T04:07:09.173Z,76.38
2018-06-21T04:09:38.238Z,76.29
2018-06-21T04:12:07.236Z,76.07
2018-06-21T04:14:36.297Z,75.94
2018-06-21T04:17:05.264Z,76.05
2018-06-21T04:19:34.250Z,75.60
2018-06-21T04:22:03.238Z,75.41
2018-06-21T04:24:32.237Z,75.33
2018-06-21T04:27:01.286Z,75.03
2018-06-21T04:29:30.354Z,75.08
2018-06-21T04:32:04.825Z,75.01
2018-06-21T04:34:33.835Z,73.92
2018-06-21T04:37:02.841Z,74.08
2018-06-21T04:39:31.833Z,74.17
2018-06-21T04:42:00.845Z,74.47
2018-06-21T04:44:29.834Z,74.04
2018-06-21T04:46:58.813Z,73.95
2018-06-21T04:49:27.905Z,73.60
2018-06-21T04:51:56.925Z,73.58
2018-06-21T04:54:25.924Z,73.19
2018-06-21T04:56:55.041Z,72.92
2018-06-21T04:59:24.064Z,72.73
2018-06-21T05:01:53.024Z,72.16
2018-06-21T05:04:22.104Z,71.12
2018-06-21T05:06:51.174Z,70.86
2018-06-21T05:09:20.117Z,71.03
2018-06-21T05:11:49.167Z,71.38
2018-06-21T05:14:18.154Z,71.04
2018-06-21T05:16:47.164Z,71.10
2018-06-21T05:19:16.367Z,70.58
2018-06-21T05:21:45.492Z,70.16
2018-06-21T05:24:14.494Z,69.75
2018-06-21T05:26:43.420Z,69.88
2018-06-21T05:29:12.355Z,70.29
2018-06-21T05:31:41.410Z,70.11
2018-06-21T05:34:10.438Z,69.45
2018-06-21T05:36:39.421Z,69.20
2018-06-21T05:39:10.314Z,69.16
2018-06-21T05:41:39.295Z,68.43
2018-06-21T05:44:08.908Z,67.16
2018-06-21T05:46:37.903Z,66.79
2018-06-21T05:49:06.893Z,66.24
2018-06-21T05:51:35.961Z,66.00
2018-06-21T05:54:04.965Z,66.17
2018-06-21T05:56:33.923Z,66.51
2018-06-21T05:59:02.980Z,66.38
2018-06-21T06:01:32.046Z,66.55
2018-06-21T06:04:01.008Z,66.56
2018-06-21T06:06:29.978Z,65.83
2018-06-21T06:08:59.026Z,65.36
2018-06-21T06:11:28.075Z,65.47
2018-06-21T06:13:57.080Z,65.67
2018-06-21T06:16:26.049Z,65.65
2018-06-21T06:18:55.012Z,65.26
2018-06-21T06:21:23.976Z,65.79
2018-06-21T06:23:53.077Z,65.72
2018-06-21T06:26:26.429Z,64.86
2018-06-21T06:28:55.415Z,64.54
2018-06-21T06:31:25.380Z,63.77
2018-06-21T06:33:54.654Z,62.72
2018-06-21T06:36:23.632Z,60.67
2018-06-21T06:38:52.597Z,58.58
2018-06-21T06:41:21.525Z,55.58
2018-06-21T06:43:50.482Z,49.67
2018-06-21T06:46:19.500Z,55.40
2018-06-21T06:48:48.461Z,58.36
2018-06-21T06:51:17.421Z,59.37
2018-06-21T06:53:46.383Z,57.27
2018-06-21T06:56:15.424Z,54.22
2018-06-21T06:58:47.497Z,44.25
2018-06-21T07:01:16.447Z,47.20
2018-06-21T07:03:45.385Z,49.28
2018-06-21T07:06:14.355Z,49.97
2018-06-21T07:08:43.325Z,50.50
2018-06-21T07:11:15.989Z,51.38
2018-06-21T07:13:45.119Z,51.55
2018-06-21T07:16:15.077Z,51.88
2018-06-21T07:18:44.052Z,49.08
2018-06-21T07:21:13.039Z,45.31
2018-06-21T07:23:42.341Z,36.89
2018-06-21T07:26:11.378Z,38.15
2018-06-21T07:28:40.547Z,26.33
2018-06-21T07:31:09.568Z,25.44
2018-06-21T07:33:38.591Z,24.10
2018-06-21T07:36:07.631Z,28.15
2018-06-21T07:38:36.642Z,21.32
2018-06-21T07:41:05.699Z,18.48
2018-06-21T07:43:47.148Z,22.52
2018-06-21T07:46:16.131Z,31.14
2018-06-21T07:48:45.214Z,29.75
2018-06-21T07:51:14.262Z,26.52
2018-06-21T07:53:43.310Z,31.45
2018-06-21T07:56:12.305Z,32.59
2018-06-21T07:58:41.341Z,26.04
2018-06-21T08:01:10.298Z,23.74
2018-06-21T08:03:39.400Z,20.45
2018-06-21T08:06:08.653Z,21.78
2018-06-21T08:08:37.626Z,22.34
2018-06-21T08:11:08.675Z,19.53
2018-06-21T08:13:37.721Z,28.64
2018-06-21T08:16:06.883Z,28.85
2018-06-21T08:18:36.078Z,20.58
2018-06-21T08:21:05.466Z,16.45
2018-06-21T08:23:34.465Z,16.97
2018-06-21T08:26:03.633Z,20.59
2018-06-21T08:28:32.657Z,25.01
2018-06-21T08:31:01.643Z,29.07
2018-06-21T08:33:30.644Z,30.05
2018-06-21T08:35:59.658Z,27.20
2018-06-21T08:38:28.721Z,22.31
2018-06-21T08:40:57.672Z,23.10
2018-06-21T08:43:26.657Z,27.56
2018-06-21T08:45:55.689Z,31.74
2018-06-21T08:48:24.689Z,33.72
2018-06-21T08:50:53.945Z,35.73
2018-06-21T08:53:22.990Z,38.15
2018-06-21T08:55:51.923Z,40.67
2018-06-21T08:58:20.953Z,39.14
2018-06-21T09:00:52.080Z,38.27
2018-06-21T09:03:21.278Z,39.48
2018-06-21T09:05:50.575Z,41.26
2018-06-21T09:08:19.800Z,39.90
2018-06-21T09:10:52.603Z,40.09
2018-06-21T09:13:21.635Z,40.64
2018-06-21T09:15:50.599Z,38.31
2018-06-21T09:18:19.580Z,39.70
2018-06-21T09:20:48.657Z,41.03
2018-06-21T09:23:17.716Z,40.52
2018-06-21T09:25:46.617Z,40.87
2018-06-21T09:28:15.642Z,42.56
2018-06-21T09:30:44.598Z,41.89
2018-06-21T09:33:13.630Z,41.75
2018-06-21T09:35:42.688Z,41.88
2018-06-21T09:38:17.041Z,42.80
2018-06-21T09:40:51.307Z,42.17
2018-06-21T09:43:31.769Z,41.51
2018-06-21T09:46:06.053Z,41.56
2018-06-21T10:01:36.220Z,42.09
2018-06-21T10:04:05.443Z,41.86
2018-06-21T10:06:34.429Z,40.21
2018-06-21T10:09:03.711Z,42.56
2018-06-21T10:11:32.675Z,43.39
2018-06-21T10:14:01.683Z,43.39
2018-06-21T10:16:30.672Z,42.82
2018-06-21T10:19:03.603Z,41.73
2018-06-21T10:21:32.684Z,42.13
2018-06-21T10:24:01.632Z,42.48
2018-06-21T10:26:35.412Z,42.93
2018-06-21T10:29:04.410Z,42.67
2018-06-21T10:31:40.042Z,42.20
2018-06-21T10:34:09.089Z,40.44
2018-06-21T10:36:38.070Z,40.11
2018-06-21T10:39:10.704Z,39.30
2018-06-21T10:41:43.427Z,37.83
2018-06-21T10:44:12.422Z,38.80
2018-06-21T10:46:41.354Z,39.39
2018-06-21T10:49:10.339Z,42.07
2018-06-21T10:51:39.479Z,42.03
2018-06-21T10:54:08.470Z,41.93
2018-06-21T10:56:37.460Z,40.75
2018-06-21T10:59:06.470Z,40.34
2018-06-21T11:01:35.873Z,40.95
2018-06-21T11:04:06.906Z,40.74
2018-06-21T11:06:35.908Z,39.99
2018-06-21T11:09:07.469Z,40.09
2018-06-21T11:11:39.458Z,40.45
2018-06-21T11:14:08.610Z,41.86
2018-06-21T11:16:37.672Z,41.75
2018-06-21T11:19:06.645Z,43.90
2018-06-21T11:21:35.797Z,43.71
2018-06-21T11:24:05.783Z,44.93
2018-06-21T11:26:34.731Z,43.09
2018-06-21T11:29:03.847Z,44.04
2018-06-21T11:31:32.901Z,43.62
2018-06-21T11:34:01.927Z,44.05
2018-06-21T11:36:31.001Z,43.56
2018-06-21T11:39:01.054Z,44.17
2018-06-21T11:41:30.074Z,44.56
2018-06-21T11:43:59.133Z,45.31
2018-06-21T11:46:28.181Z,45.31
2018-06-21T11:48:57.121Z,45.20
2018-06-21T11:51:26.114Z,46.38
2018-06-21T11:53:55.192Z,45.86
2018-06-21T11:56:24.161Z,45.76
2018-06-21T11:58:53.175Z,46.64
2018-06-21T12:01:22.193Z,46.93
2018-06-21T12:03:51.249Z,46.88
2018-06-21T12:06:20.289Z,46.37
2018-06-21T12:08:49.740Z,47.08
2018-06-21T12:11:18.724Z,47.51
2018-06-21T12:13:47.773Z,46.93
2018-06-21T12:16:16.806Z,47.00
2018-06-21T12:18:45.736Z,46.88
2018-06-21T12:21:14.717Z,46.89
2018-06-21T12:23:43.792Z,46.10
2018-06-21T12:26:12.820Z,43.61
2018-06-21T12:28:44.897Z,42.62
2018-06-21T12:31:13.861Z,41.92
2018-06-21T12:33:42.883Z,42.77
2018-06-21T12:36:15.102Z,43.76
2018-06-21T12:38:44.111Z,45.54
2018-06-21T12:41:13.028Z,47.81
2018-06-21T12:43:42.370Z,50.64
2018-06-21T12:46:12.130Z,52.00
2018-06-21T12:48:41.133Z,52.72
2018-06-21T12:51:10.122Z,51.61
2018-06-21T12:53:39.110Z,51.84
2018-06-21T13:12:45.173Z,47.57
2018-06-21T13:15:19.744Z,46.91
2018-06-21T13:17:48.788Z,48.24
2018-06-21T13:20:17.741Z,50.20
2018-06-21T13:22:46.699Z,54.71
2018-06-21T13:25:15.781Z,54.90
2018-06-21T13:27:44.756Z,55.44
2018-06-21T13:30:15.746Z,55.04
2018-06-21T13:32:44.689Z,53.97
2018-06-21T13:35:13.836Z,53.05
2018-06-21T13:37:42.813Z,51.97
2018-06-21T13:40:11.812Z,51.51
2018-06-21T13:42:40.802Z,52.45
2018-06-21T13:45:09.898Z,52.47
2018-06-21T13:47:38.842Z,52.80
2018-06-21T13:50:07.875Z,52.16
2018-06-21T13:52:36.880Z,51.64
2018-06-21T13:55:05.860Z,50.75
2018-06-21T13:57:34.892Z,51.01
2018-06-21T14:00:03.910Z,50.13
2018-06-21T14:02:36.434Z,49.52
2018-06-21T14:05:05.596Z,48.81
2018-06-21T14:07:34.656Z,48.58
2018-06-21T14:10:03.595Z,49.88
2018-06-21T14:12:33.601Z,51.85
2018-06-21T14:15:02.562Z,51.37
2018-06-21T14:17:31.586Z,50.74
2018-06-21T14:20:00.579Z,50.34
2018-06-21T14:22:29.507Z,50.14
2018-06-21T14:24:58.535Z,49.19
2018-06-21T14:27:27.569Z,50.37
2018-06-21T14:29:56.634Z,50.13
2018-06-21T14:32:25.556Z,52.02
2018-06-21T14:34:54.545Z,52.59
2018-06-21T14:37:23.497Z,52.08
2018-06-21T14:39:52.505Z,50.76
2018-06-21T14:42:21.573Z,49.46
2018-06-21T14:44:50.551Z,49.50
2018-06-21T14:47:19.588Z,49.88
2018-06-21T14:49:48.638Z,47.70
2018-06-21T14:52:17.715Z,49.39
2018-06-21T14:54:46.678Z,49.64
2018-06-21T14:57:15.576Z,50.38
2018-06-21T14:59:44.586Z,51.31
2018-06-21T15:02:13.552Z,51.82
2018-06-21T15:04:44.586Z,52.41
2018-06-21T15:07:13.579Z,51.58
2018-06-21T15:09:42.496Z,51.07
2018-06-21T15:12:11.463Z,49.03
2018-06-21T15:14:40.491Z,48.68
2018-06-21T15:17:09.485Z,49.35
2018-06-21T15:19:38.532Z,47.25
2018-06-21T15:22:08.557Z,46.60
2018-06-21T15:24:37.612Z,46.06
2018-06-21T15:27:12.219Z,46.83
2018-06-21T15:29:46.884Z,47.77
2018-06-21T15:32:15.856Z,47.64
2018-06-21T15:34:44.762Z,49.74
2018-06-21T15:37:13.824Z,50.71
2018-06-21T15:39:42.868Z,50.61
2018-06-21T15:42:11.893Z,50.54
2018-06-21T15:44:40.916Z,51.49
2018-06-21T15:47:09.868Z,51.10
2018-06-21T15:49:38.917Z,51.42
2018-06-21T15:52:07.888Z,51.44
2018-06-21T15:54:36.893Z,51.12
2018-06-21T15:57:05.900Z,49.18
2018-06-21T15:59:34.961Z,48.51
2018-06-21T16:02:03.935Z,48.44
2018-06-21T16:04:33.644Z,49.57
2018-06-21T16:07:02.628Z,50.17
2018-06-21T16:09:31.622Z,50.29
2018-06-21T16:12:00.576Z,50.69
2018-06-21T16:14:29.608Z,51.57
2018-06-21T16:16:58.623Z,51.44
2018-06-21T16:19:27.662Z,51.70
2018-06-21T16:21:56.631Z,51.33
2018-06-21T16:24:25.593Z,51.41
2018-06-21T16:26:54.685Z,50.66
2018-06-21T16:29:23.774Z,50.10
2018-06-21T16:31:52.763Z,51.32
2018-06-21T16:34:21.826Z,51.11
2018-06-21T16:36:50.808Z,51.41
2018-06-21T16:39:19.803Z,51.79
2018-06-21T16:41:48.738Z,51.88
2018-06-21T16:44:17.836Z,50.98
2018-06-21T16:46:46.855Z,51.33
2018-06-21T16:49:15.817Z,51.50
2018-06-21T16:51:44.854Z,51.18
2018-06-21T16:54:13.851Z,51.95
2018-06-21T16:56:42.858Z,51.93
2018-06-21T16:59:11.906Z,50.90
2018-06-21T17:01:40.878Z,50.89
2018-06-21T17:04:09.849Z,51.03
2018-06-21T17:06:42.507Z,51.10
2018-06-21T17:09:15.113Z,52.36
2018-06-21T17:11:44.087Z,53.00
2018-06-21T17:14:13.115Z,52.83
2018-06-21T17:16:42.049Z,51.87
2018-06-21T17:19:11.042Z,51.94
2018-06-21T17:21:40.052Z,51.07
2018-06-21T17:24:09.064Z,51.14
2018-06-21T17:26:38.100Z,51.63
2018-06-21T17:29:07.016Z,52.18
2018-06-21T17:31:36.002Z,52.45
2018-06-21T17:34:04.997Z,53.16
2018-06-21T17:36:34.296Z,52.63
2018-06-21T17:39:05.378Z,52.45
2018-06-21T17:41:36.701Z,52.14
2018-06-21T17:44:05.805Z,51.65
2018-06-21T17:46:34.772Z,50.17
2018-06-21T17:49:03.747Z,50.72
2018-06-21T17:51:33.912Z,51.53
2018-06-21T17:54:03.060Z,51.39
2018-06-21T17:56:32.051Z,52.28
2018-06-21T17:59:00.999Z,52.52
2018-06-21T18:01:30.005Z,52.98
2018-06-21T18:03:58.979Z,53.15
2018-06-21T18:06:27.977Z,53.89
2018-06-21T18:08:56.963Z,53.27
2018-06-21T18:11:25.946Z,54.23
2018-06-21T18:13:54.852Z,54.60
2018-06-21T18:16:23.805Z,54.51
2018-06-21T18:18:52.838Z,54.62
2018-06-21T18:21:22.812Z,54.40
2018-06-21T18:23:51.760Z,53.69
2018-06-21T18:26:20.835Z,53.26
2018-06-21T18:28:49.880Z,53.24
2018-06-21T18:31:18.860Z,52.89
2018-06-21T18:33:47.969Z,51.44
2018-06-21T18:36:16.893Z,51.54
2018-06-21T18:38:46.733Z,52.03
2018-06-21T18:41:15.658Z,53.25
2018-06-21T18:43:44.598Z,53.99
2018-06-21T18:46:13.651Z,52.62
2018-06-21T18:48:42.607Z,53.36
2018-06-21T18:51:11.600Z,53.09
2018-06-21T18:53:40.560Z,52.87
2018-06-21T18:56:09.599Z,52.64
2018-06-21T18:58:38.630Z,52.87
2018-06-21T19:01:07.586Z,52.92
2018-06-21T19:03:36.593Z,53.21
2018-06-21T19:06:09.723Z,53.11
2018-06-21T19:08:43.933Z,53.39
2018-06-21T19:11:18.140Z,53.31
2018-06-21T19:13:47.112Z,53.31
2018-06-21T19:16:16.040Z,53.51
2018-06-21T19:18:45.028Z,54.02
2018-06-21T19:21:14.047Z,53.90
2018-06-21T19:23:48.625Z,54.53
2018-06-21T19:26:17.642Z,53.31
2018-06-21T19:28:46.550Z,52.45
2018-06-21T19:31:15.526Z,52.48
2018-06-21T19:33:44.748Z,51.82
2018-06-21T19:36:13.716Z,52.23
2018-06-21T19:38:42.735Z,52.80
2018-06-21T19:41:11.716Z,53.61
2018-06-21T19:43:40.687Z,54.06
2018-06-21T19:46:09.710Z,54.28
2018-06-21T19:48:38.686Z,54.48
2018-06-21T19:51:07.614Z,54.77
2018-06-21T19:53:36.509Z,55.43
2018-06-21T19:56:05.506Z,55.87
2018-06-21T19:58:34.441Z,56.15
2018-06-21T20:01:03.476Z,56.48
2018-06-21T20:03:32.407Z,56.91
2018-06-21T20:06:01.389Z,57.33
2018-06-21T20:08:30.344Z,57.47
2018-06-21T20:11:04.589Z,57.47
2018-06-21T20:13:49.694Z,57.73
2018-06-21T20:16:19.282Z,58.15
2018-06-21T20:18:48.408Z,58.23
2018-06-21T20:21:20.417Z,58.90
2018-06-21T20:23:50.564Z,59.25
2018-06-21T20:26:20.348Z,59.74
2018-06-21T20:28:52.906Z,59.21
2018-06-21T20:31:21.852Z,59.74
2018-06-21T20:33:50.802Z,59.85
2018-06-21T20:36:23.984Z,59.75
2018-06-21T20:38:58.546Z,59.72
2018-06-21T20:41:27.510Z,59.19
2018-06-21T20:44:01.992Z,59.46
2018-06-21T20:46:33.029Z,60.11
2018-06-21T20:49:02.075Z,60.02
2018-06-21T20:51:31.031Z,60.55
2018-06-21T20:54:00.048Z,60.12
2018-06-21T20:56:29.000Z,59.66
2018-06-21T20:58:58.015Z,59.74
2018-06-21T21:01:29.023Z,58.63
2018-06-21T21:03:57.956Z,58.64
2018-06-21T21:06:26.865Z,57.94
2018-06-21T21:08:55.825Z,58.25
2018-06-21T21:11:24.750Z,58.30
2018-06-21T21:13:53.663Z,57.67
2018-06-21T21:16:22.644Z,57.15
2018-06-21T21:18:51.630Z,56.89
2018-06-21T21:21:20.594Z,56.19
2018-06-21T21:23:55.089Z,55.81
2018-06-21T21:26:29.747Z,55.94
2018-06-21T21:28:58.666Z,55.97
2018-06-21T21:31:27.601Z,56.06
2018-06-21T21:33:56.641Z,55.92
2018-06-21T21:36:25.561Z,56.14
2018-06-21T21:38:54.504Z,56.25
2018-06-21T21:41:23.527Z,56.25
2018-06-21T21:43:52.441Z,55.79
2018-06-21T21:46:21.356Z,55.87
2018-06-21T21:48:50.309Z,55.90
2018-06-21T21:51:19.261Z,55.11
2018-06-21T21:53:48.317Z,55.15
2018-06-21T21:56:17.249Z,55.15
2018-06-21T21:58:46.155Z,55.66
2018-06-21T22:01:15.140Z,55.52
2018-06-21T22:03:44.064Z,55.25
2018-06-21T22:06:12.999Z,55.37
2018-06-21T22:08:41.920Z,55.09
2018-06-21T22:11:10.883Z,54.70
2018-06-21T22:13:39.814Z,54.84
2018-06-21T22:16:08.785Z,54.31
2018-06-21T22:18:41.480Z,53.82
2018-06-21T22:21:11.397Z,54.00
2018-06-21T22:23:40.336Z,54.49
2018-06-21T22:26:09.342Z,55.00
2018-06-21T22:28:38.258Z,54.94
2018-06-21T22:31:07.270Z,55.03
2018-06-21T22:33:36.251Z,55.20
2018-06-21T22:36:05.328Z,55.49
2018-06-21T22:38:34.281Z,55.72
2018-06-21T22:41:03.253Z,55.77
2018-06-21T22:43:32.174Z,56.17
2018-06-21T22:46:01.146Z,56.76
2018-06-21T22:48:30.172Z,56.97
2018-06-21T22:50:59.182Z,56.94
2018-06-21T22:53:28.184Z,56.74
2018-06-21T22:55:57.166Z,57.06
2018-06-21T22:58:26.100Z,57.07
2018-06-21T23:00:55.023Z,57.07
2018-06-21T23:03:23.984Z,56.47
2018-06-21T23:05:52.957Z,56.51
2018-06-21T23:08:21.874Z,56.55
2018-06-21T23:10:50.815Z,57.00
2018-06-21T23:13:21.750Z,56.55
2018-06-21T23:15:50.705Z,56.10
2018-06-21T23:18:30.840Z,56.12
2018-06-21T23:21:05.541Z,55.64
2018-06-21T23:23:36.477Z,55.63
2018-06-21T23:26:09.284Z,55.56
2018-06-21T23:28:38.224Z,55.66
2018-06-21T23:31:07.212Z,55.67
2018-06-21T23:33:36.157Z,56.17
2018-06-21T23:36:05.235Z,56.19
2018-06-21T23:38:34.173Z,56.63
2018-06-21T23:41:03.112Z,56.60
2018-06-21T23:43:32.164Z,57.03
2018-06-21T23:46:01.183Z,57.42
2018-06-21T23:48:30.168Z,57.79
2018-06-21T23:50:59.075Z,57.38
2018-06-21T23:53:28.071Z,56.77
2018-06-21T23:55:57.049Z,57.00
2018-06-21T23:58:26.004Z,56.63
